createdAt,value
2018-09-08T00:02:13.012Z,14.20
2018-09-08T00:04:41.937Z,14.20
2018-09-08T00:07:17.390Z,14.20
2018-09-08T00:09:46.196Z,14.20
2018-09-08T00:12:15.189Z,14.20
2018-09-08T00:14:43.312Z,14.20
2018-09-08T00:17:17.360Z,14.30
2018-09-08T00:19:52.034Z,14.30
2018-09-08T00:22:26.526Z,14.30
2018-09-08T00:25:04.192Z,14.40
2018-09-08T00:27:39.065Z,14.40
2018-09-08T00:30:09.667Z,14.40
2018-09-08T00:32:39.692Z,14.40
2018-09-08T00:35:08.670Z,14.50
2018-09-08T00:37:37.320Z,14.50
2018-09-08T00:40:07.821Z,14.50
2018-09-08T00:42:36.903Z,14.50
2018-09-08T00:45:06.944Z,14.50
2018-09-08T00:47:36.326Z,14.50
2018-09-08T00:50:05.724Z,14.50
2018-09-08T00:52:34.914Z,14.50
2018-09-08T00:55:03.824Z,14.50
2018-09-08T00:57:32.873Z,14.50
2018-09-08T01:00:01.349Z,14.50
2018-09-08T01:02:31.189Z,14.50
2018-09-08T01:04:59.945Z,14.50
2018-09-08T01:07:30.580Z,14.60
2018-09-08T01:10:02.150Z,14.60
2018-09-08T01:12:31.782Z,14.60
2018-09-08T01:15:00.812Z,14.60
2018-09-08T01:17:29.673Z,14.60
2018-09-08T01:19:59.277Z,14.60
2018-09-08T01:22:29.724Z,14.60
2018-09-08T01:24:58.389Z,14.70
2018-09-08T01:27:27.368Z,14.70
2018-09-08T01:29:56.188Z,14.70
2018-09-08T01:32:24.623Z,14.70
2018-09-08T01:34:54.089Z,14.70
2018-09-08T01:37:22.549Z,14.70
2018-09-08T01:39:51.786Z,14.70
2018-09-08T01:42:23.779Z,14.70
2018-09-08T01:44:52.320Z,14.60
2018-09-08T01:47:21.346Z,14.60
2018-09-08T01:49:50.356Z,14.60
2018-09-08T01:52:19.908Z,14.50
2018-09-08T01:54:49.248Z,14.50
2018-09-08T01:57:18.666Z,14.50
2018-09-08T01:59:48.724Z,14.60
2018-09-08T02:02:17.688Z,14.60
2018-09-08T02:04:46.361Z,14.60
2018-09-08T02:07:15.450Z,14.60
2018-09-08T02:09:44.196Z,14.60
2018-09-08T02:12:13.365Z,14.60
2018-09-08T02:14:41.892Z,14.70
2018-09-08T02:17:11.185Z,14.70
2018-09-08T02:19:39.544Z,14.70
2018-09-08T02:22:09.881Z,14.70
2018-09-08T02:24:38.116Z,14.70
2018-09-08T02:27:07.147Z,14.70
2018-09-08T02:29:35.834Z,14.70
2018-09-08T02:32:04.584Z,14.70
2018-09-08T02:34:34.666Z,14.70
2018-09-08T02:37:03.402Z,14.70
2018-09-08T02:39:32.314Z,14.70
2018-09-08T02:42:01.749Z,14.60
2018-09-08T02:44:31.363Z,14.70
2018-09-08T02:47:00.946Z,14.70
2018-09-08T02:49:42.686Z,14.70
2018-09-08T02:52:11.524Z,14.70
2018-09-08T02:54:39.544Z,14.60
2018-09-08T02:57:07.639Z,14.70
2018-09-08T02:59:36.904Z,14.60
2018-09-08T03:02:04.492Z,14.70
2018-09-08T03:04:33.517Z,14.70
2018-09-08T03:07:05.648Z,14.60
2018-09-08T03:09:34.133Z,14.60
2018-09-08T03:12:02.485Z,14.50
2018-09-08T03:14:30.272Z,14.50
2018-09-08T03:16:58.629Z,14.50
2018-09-08T03:19:25.870Z,14.40
2018-09-08T03:21:54.366Z,14.40
2018-09-08T03:24:22.169Z,14.30
2018-09-08T03:26:49.970Z,14.20
2018-09-08T03:29:18.434Z,14.20
2018-09-08T03:31:46.141Z,14.10
2018-09-08T03:34:13.862Z,14.10
2018-09-08T03:36:41.989Z,14.10
2018-09-08T03:39:09.767Z,13.90
2018-09-08T03:41:37.937Z,13.90
2018-09-08T03:44:06.579Z,13.80
2018-09-08T03:46:34.194Z,13.80
2018-09-08T03:49:01.671Z,13.80
2018-09-08T03:51:29.942Z,13.70
2018-09-08T03:53:57.919Z,13.60
2018-09-08T03:56:27.347Z,13.60
2018-09-08T03:58:55.511Z,13.50
2018-09-08T04:01:23.035Z,13.40
2018-09-08T04:03:51.292Z,13.40
2018-09-08T04:06:20.061Z,13.40
2018-09-08T04:08:49.092Z,13.30
2018-09-08T04:11:19.045Z,13.30
2018-09-08T04:13:47.598Z,13.20
2018-09-08T04:16:16.537Z,13.20
2018-09-08T04:18:45.603Z,13.20
2018-09-08T04:21:14.149Z,13.10
2018-09-08T04:23:42.888Z,13.10
2018-09-08T04:26:11.999Z,13.10
2018-09-08T04:28:41.664Z,13.10
2018-09-08T04:31:10.670Z,13.10
2018-09-08T04:33:40.311Z,13.00
2018-09-08T04:36:09.918Z,13.00
2018-09-08T04:38:38.977Z,13.00
2018-09-08T04:41:08.120Z,13.00
2018-09-08T04:43:38.081Z,12.90
2018-09-08T04:46:08.033Z,12.90
2018-09-08T04:48:37.451Z,12.90
2018-09-08T04:51:06.470Z,12.90
2018-09-08T04:53:35.068Z,12.80
2018-09-08T04:56:03.776Z,12.80
2018-09-08T04:58:32.797Z,12.80
2018-09-08T05:01:01.953Z,12.70
2018-09-08T05:03:30.933Z,12.70
2018-09-08T05:05:59.640Z,12.70
2018-09-08T05:08:28.390Z,12.70
2018-09-08T05:11:00.724Z,12.70
2018-09-08T05:13:30.074Z,12.70
2018-09-08T05:15:59.323Z,12.70
2018-09-08T05:18:28.416Z,12.70
2018-09-08T05:20:57.102Z,12.70
2018-09-08T05:23:26.142Z,12.80
2018-09-08T05:25:56.553Z,12.80
2018-09-08T05:28:24.787Z,12.80
2018-09-08T05:32:18.464Z,12.70
2018-09-08T05:34:47.396Z,12.70
2018-09-08T05:37:16.208Z,12.70
2018-09-08T05:39:46.683Z,12.70
2018-09-08T05:42:15.728Z,12.60
2018-09-08T05:44:44.651Z,12.60
2018-09-08T05:47:13.896Z,12.60
2018-09-08T05:49:42.815Z,12.70
2018-09-08T05:52:11.825Z,12.70
2018-09-08T05:54:40.792Z,12.70
2018-09-08T05:57:09.719Z,12.70
2018-09-08T05:59:38.778Z,12.70
2018-09-08T06:02:08.849Z,12.70
2018-09-08T06:04:37.508Z,12.70
2018-09-08T06:07:06.672Z,12.80
2018-09-08T06:09:35.864Z,12.80
2018-09-08T06:12:05.400Z,12.90
2018-09-08T06:14:34.335Z,12.90
2018-09-08T06:17:04.185Z,12.90
2018-09-08T06:20:57.575Z,13.00
2018-09-08T06:23:28.144Z,13.10
2018-09-08T06:25:56.560Z,13.20
2018-09-08T06:28:25.610Z,13.30
2018-09-08T06:30:54.745Z,13.40
2018-09-08T06:33:23.686Z,13.50
2018-09-08T06:35:52.468Z,13.60
2018-09-08T06:38:21.348Z,13.70
2018-09-08T06:40:50.548Z,13.90
2018-09-08T06:43:20.468Z,14.10
2018-09-08T06:45:50.041Z,14.30
2018-09-08T06:48:18.714Z,14.50
2018-09-08T06:50:47.732Z,14.70
2018-09-08T06:53:16.135Z,14.80
2018-09-08T06:55:45.074Z,14.80
2018-09-08T06:58:14.134Z,14.90
2018-09-08T07:00:43.162Z,14.90
2018-09-08T07:03:11.984Z,14.90
2018-09-08T07:05:40.957Z,15.00
2018-09-08T07:08:09.965Z,15.00
2018-09-08T07:10:39.425Z,15.10
2018-09-08T07:13:08.245Z,15.10
2018-09-08T07:15:37.353Z,15.20
2018-09-08T07:18:06.276Z,15.20
2018-09-08T07:20:35.769Z,15.20
2018-09-08T07:23:05.384Z,15.20
2018-09-08T07:25:34.067Z,15.10
2018-09-08T07:28:02.960Z,15.40
2018-09-08T07:30:34.965Z,15.40
2018-09-08T07:33:04.765Z,15.40
2018-09-08T07:35:33.725Z,15.40
2018-09-08T07:38:17.464Z,15.50
2018-09-08T07:40:53.697Z,15.50
2018-09-08T07:43:22.400Z,15.60
2018-09-08T07:45:52.200Z,15.60
2018-09-08T07:48:30.496Z,15.70
2018-09-08T07:51:15.092Z,15.60
2018-09-08T07:53:48.727Z,15.60
2018-09-08T07:56:40.800Z,15.60
2018-09-08T07:59:15.355Z,15.70
2018-09-08T08:04:45.358Z,15.80
2018-09-08T08:07:16.560Z,15.80
2018-09-08T08:09:55.065Z,15.70
2018-09-08T08:12:35.265Z,15.80
2018-09-08T08:15:04.244Z,15.80
2018-09-08T08:17:38.969Z,15.90
2018-09-08T08:20:08.020Z,15.80
2018-09-08T08:22:42.265Z,15.90
2018-09-08T08:25:12.523Z,16.00
2018-09-08T08:27:41.042Z,16.10
2018-09-08T08:30:23.042Z,16.10
2018-09-08T08:32:52.375Z,16.20
2018-09-08T08:35:23.316Z,16.30
2018-09-08T08:37:53.008Z,16.30
2018-09-08T08:40:27.419Z,16.40
2018-09-08T08:42:58.892Z,16.50
2018-09-08T08:45:28.863Z,16.60
2018-09-08T08:48:05.200Z,16.60
2018-09-08T08:50:45.790Z,16.60
2018-09-08T08:53:27.561Z,16.50
2018-09-08T08:55:56.320Z,16.40
2018-09-08T08:58:24.711Z,16.40
2018-09-08T09:00:54.560Z,16.40
2018-09-08T09:03:23.488Z,16.40
2018-09-08T09:07:17.096Z,16.40
2018-09-08T09:09:51.018Z,16.60
2018-09-08T09:12:19.326Z,16.80
2018-09-08T09:14:48.087Z,16.90
2018-09-08T09:17:16.993Z,16.90
2018-09-08T09:19:57.764Z,17.00
2018-09-08T09:22:38.412Z,17.00
2018-09-08T09:25:07.948Z,17.10
2018-09-08T09:27:44.187Z,17.30
2018-09-08T09:30:13.465Z,17.30
2018-09-08T09:32:42.948Z,17.30
2018-09-08T09:35:14.241Z,17.40
2018-09-08T09:37:42.932Z,17.40
2018-09-08T09:40:12.794Z,17.50
2018-09-08T09:42:41.952Z,17.60
2018-09-08T09:45:11.517Z,17.60
2018-09-08T09:47:40.012Z,17.50
2018-09-08T09:50:09.969Z,17.50
2018-09-08T09:52:39.365Z,17.60
2018-09-08T09:55:08.252Z,17.60
2018-09-08T09:57:37.105Z,17.60
2018-09-08T10:00:07.404Z,17.60
2018-09-08T10:03:07.158Z,17.80
2018-09-08T10:05:36.368Z,17.90
2018-09-08T10:08:05.010Z,18.00
2018-09-08T10:10:34.117Z,18.00
2018-09-08T10:13:03.017Z,18.10
2018-09-08T10:15:32.331Z,18.10
2018-09-08T10:18:01.204Z,18.50
2018-09-08T10:20:30.333Z,18.70
2018-09-08T10:22:59.328Z,18.90
2018-09-08T10:25:28.774Z,18.90
2018-09-08T10:27:59.933Z,18.90
2018-09-08T10:30:29.119Z,18.80
2018-09-08T10:32:59.071Z,18.80
2018-09-08T10:35:27.760Z,18.70
2018-09-08T10:37:56.337Z,18.70
2018-09-08T10:40:25.083Z,18.60
2018-09-08T10:42:55.157Z,18.80
2018-09-08T10:45:24.044Z,19.00
2018-09-08T10:47:53.660Z,19.00
2018-09-08T10:50:22.389Z,19.20
2018-09-08T10:52:51.095Z,19.20
2018-09-08T10:55:19.919Z,19.40
2018-09-08T10:57:48.630Z,19.30
2018-09-08T11:00:17.540Z,19.40
2018-09-08T11:02:46.477Z,19.40
2018-09-08T11:05:15.176Z,19.20
2018-09-08T11:07:44.057Z,19.10
2018-09-08T11:10:12.379Z,18.90
2018-09-08T11:12:42.832Z,18.70
2018-09-08T11:15:11.740Z,18.70
2018-09-08T11:17:41.058Z,18.50
2018-09-08T11:20:10.064Z,18.40
2018-09-08T11:22:38.910Z,18.30
2018-09-08T11:25:07.993Z,18.40
2018-09-08T11:27:36.804Z,18.50
2018-09-08T11:30:06.454Z,18.80
2018-09-08T11:32:35.400Z,19.00
2018-09-08T11:35:04.328Z,19.20
2018-09-08T11:37:33.365Z,19.40
2018-09-08T11:40:05.338Z,19.50
2018-09-08T11:42:34.146Z,19.60
2018-09-08T11:45:02.765Z,19.40
2018-09-08T11:47:31.628Z,19.30
2018-09-08T11:50:00.369Z,19.50
2018-09-08T11:52:29.203Z,19.80
2018-09-08T11:54:57.963Z,19.90
2018-09-08T11:57:26.907Z,20.00
2018-09-08T11:59:56.622Z,19.90
2018-09-08T12:02:25.221Z,19.80
2018-09-08T12:04:54.682Z,19.90
2018-09-08T12:07:23.292Z,19.90
2018-09-08T12:09:52.009Z,19.80
2018-09-08T12:12:20.813Z,19.70
2018-09-08T12:14:51.290Z,19.80
2018-09-08T12:17:20.428Z,19.70
2018-09-08T12:19:50.248Z,19.60
2018-09-08T12:22:18.910Z,19.40
2018-09-08T12:24:47.240Z,19.40
2018-09-08T12:27:16.196Z,19.30
2018-09-08T12:29:45.140Z,19.20
2018-09-08T12:32:13.821Z,19.30
2018-09-08T12:34:42.909Z,19.50
2018-09-08T12:37:11.921Z,19.60
2018-09-08T12:39:40.568Z,19.50
2018-09-08T12:42:09.503Z,19.60
2018-09-08T12:44:38.253Z,19.80
2018-09-08T12:47:07.070Z,19.70
2018-09-08T12:49:35.984Z,19.60
2018-09-08T12:52:05.166Z,19.50
2018-09-08T12:54:34.128Z,19.50
2018-09-08T12:57:02.437Z,19.40
2018-09-08T12:59:31.247Z,19.70
2018-09-08T13:02:00.320Z,19.70
2018-09-08T13:04:29.056Z,19.80
2018-09-08T13:06:57.692Z,19.90
2018-09-08T13:09:26.897Z,19.80
2018-09-08T13:11:55.857Z,19.60
2018-09-08T13:14:24.391Z,19.50
2018-09-08T13:16:54.444Z,19.20
2018-09-08T13:19:22.980Z,19.00
2018-09-08T13:21:51.785Z,19.00
2018-09-08T13:24:21.511Z,19.00
2018-09-08T13:26:50.361Z,18.90
2018-09-08T13:29:21.652Z,18.90
2018-09-08T13:31:51.188Z,18.90
2018-09-08T13:34:19.708Z,18.80
2018-09-08T13:36:48.548Z,18.70
2018-09-08T13:39:17.373Z,18.60
2018-09-08T13:41:45.676Z,18.50
2018-09-08T13:44:16.613Z,18.40
2018-09-08T13:46:46.806Z,18.30
2018-09-08T13:49:15.785Z,18.30
2018-09-08T13:51:44.885Z,18.30
2018-09-08T13:54:14.209Z,18.20
2018-09-08T13:56:43.031Z,18.10
2018-09-08T13:59:12.858Z,18.20
2018-09-08T14:01:41.557Z,18.30
2018-09-08T14:04:10.591Z,18.40
2018-09-08T14:06:39.484Z,18.30
2018-09-08T14:09:08.389Z,18.40
2018-09-08T14:11:37.686Z,18.50
2018-09-08T14:14:06.280Z,18.60
2018-09-08T14:16:34.750Z,18.60
2018-09-08T14:19:03.417Z,18.50
2018-09-08T14:21:32.344Z,18.60
2018-09-08T14:24:01.470Z,18.60
2018-09-08T14:26:30.089Z,18.40
2018-09-08T14:28:58.942Z,18.30
2018-09-08T14:31:27.845Z,18.20
2018-09-08T14:33:56.660Z,18.20
2018-09-08T14:36:25.774Z,18.20
2018-09-08T14:38:54.399Z,18.10
2018-09-08T14:41:23.243Z,18.10
2018-09-08T14:43:52.217Z,18.10
2018-09-08T14:46:21.066Z,18.10
2018-09-08T14:48:49.962Z,18.20
2018-09-08T14:51:18.788Z,18.20
2018-09-08T14:53:48.832Z,18.20
2018-09-08T14:56:18.146Z,18.10
2018-09-08T14:58:47.086Z,18.10
2018-09-08T15:01:15.872Z,18.10
2018-09-08T15:03:44.388Z,18.20
2018-09-08T15:06:13.306Z,18.20
2018-09-08T15:08:42.122Z,18.10
2018-09-08T15:11:11.094Z,17.90
2018-09-08T15:13:40.824Z,17.80
2018-09-08T15:16:09.728Z,17.80
2018-09-08T15:18:38.544Z,17.70
2018-09-08T15:21:07.472Z,17.70
2018-09-08T15:23:36.188Z,17.60
2018-09-08T15:26:07.883Z,17.40
2018-09-08T15:28:36.562Z,17.40
2018-09-08T15:31:05.499Z,17.30
2018-09-08T15:33:34.329Z,17.30
2018-09-08T15:36:03.089Z,17.20
2018-09-08T15:38:33.013Z,17.20
2018-09-08T15:41:02.021Z,17.10
2018-09-08T15:43:31.044Z,17.10
2018-09-08T15:46:03.172Z,17.20
2018-09-08T15:48:32.145Z,17.10
2018-09-08T15:51:06.445Z,17.10
2018-09-08T15:53:34.768Z,17.20
2018-09-08T15:56:03.497Z,17.10
2018-09-08T15:58:32.774Z,17.10
2018-09-08T16:01:04.663Z,17.20
2018-09-08T16:03:36.457Z,17.30
2018-09-08T16:06:06.289Z,17.30
2018-09-08T16:08:35.173Z,17.40
2018-09-08T16:11:04.220Z,17.50
2018-09-08T16:13:33.171Z,17.60
2018-09-08T16:16:02.148Z,17.60
2018-09-08T16:18:31.054Z,17.50
2018-09-08T16:21:00.783Z,17.50
2018-09-08T16:23:35.609Z,17.50
2018-09-08T16:26:07.101Z,17.50
2018-09-08T16:28:38.829Z,17.50
2018-09-08T16:31:07.369Z,17.50
2018-09-08T16:33:36.021Z,17.50
2018-09-08T16:36:05.357Z,17.40
2018-09-08T16:38:49.978Z,17.40
2018-09-08T16:41:19.497Z,17.50
2018-09-08T16:43:48.392Z,17.40
2018-09-08T16:46:17.454Z,17.40
2018-09-08T16:48:46.577Z,17.40
2018-09-08T16:51:15.398Z,17.30
2018-09-08T16:53:44.512Z,17.30
2018-09-08T16:56:14.514Z,17.30
2018-09-08T16:58:42.853Z,17.30
2018-09-08T17:01:11.561Z,17.30
2018-09-08T17:03:40.456Z,17.30
2018-09-08T17:06:09.077Z,17.30
2018-09-08T17:08:38.149Z,17.30
2018-09-08T17:11:06.908Z,17.30
2018-09-08T17:13:35.772Z,17.20
2018-09-08T17:16:05.013Z,17.20
2018-09-08T17:18:34.088Z,17.20
2018-09-08T17:21:03.813Z,17.20
2018-09-08T17:23:32.745Z,17.20
2018-09-08T17:26:01.782Z,17.20
2018-09-08T17:28:30.517Z,17.10
2018-09-08T17:30:59.230Z,17.10
2018-09-08T17:33:28.161Z,17.10
2018-09-08T17:35:57.917Z,17.10
2018-09-08T17:38:26.972Z,17.00
2018-09-08T17:40:55.971Z,17.10
2018-09-08T17:43:24.497Z,17.00
2018-09-08T17:45:53.273Z,17.00
2018-09-08T17:48:21.922Z,16.90
2018-09-08T17:50:51.005Z,16.90
2018-09-08T17:53:19.811Z,16.90
2018-09-08T17:55:48.757Z,16.90
2018-09-08T17:58:17.812Z,16.80
2018-09-08T18:00:46.350Z,16.80
2018-09-08T18:03:15.333Z,16.80
2018-09-08T18:05:44.300Z,16.80
2018-09-08T18:08:17.526Z,16.80
2018-09-08T18:10:46.545Z,16.80
2018-09-08T18:13:15.579Z,16.70
2018-09-08T18:15:44.491Z,16.70
2018-09-08T18:18:13.406Z,16.70
2018-09-08T18:20:42.024Z,16.70
2018-09-08T18:23:11.007Z,16.70
2018-09-08T18:25:39.785Z,16.70
2018-09-08T18:28:08.584Z,16.70
2018-09-08T18:30:37.610Z,16.70
2018-09-08T18:33:06.436Z,16.60
2018-09-08T18:35:35.265Z,16.60
2018-09-08T18:38:03.910Z,16.60
2018-09-08T18:40:32.675Z,16.60
2018-09-08T18:43:01.636Z,16.60
2018-09-08T18:45:30.709Z,16.60
2018-09-08T18:47:59.384Z,16.60
2018-09-08T18:50:28.267Z,16.60
2018-09-08T18:52:57.172Z,16.50
2018-09-08T18:55:26.137Z,16.50
2018-09-08T18:57:54.928Z,16.50
2018-09-08T19:00:23.802Z,16.50
2018-09-08T19:02:52.469Z,16.50
2018-09-08T19:05:21.358Z,16.40
2018-09-08T19:07:50.380Z,16.40
2018-09-08T19:10:19.088Z,16.40
2018-09-08T19:12:47.909Z,16.30
2018-09-08T19:15:17.743Z,16.30
2018-09-08T19:17:46.437Z,16.30
2018-09-08T19:20:20.353Z,16.30
2018-09-08T19:22:48.902Z,16.20
2018-09-08T19:25:17.608Z,16.10
2018-09-08T19:27:46.267Z,16.10
2018-09-08T19:30:15.083Z,16.00
2018-09-08T19:32:43.881Z,16.00
2018-09-08T19:35:18.284Z,16.00
2018-09-08T19:37:46.512Z,16.00
2018-09-08T19:40:20.737Z,16.00
2018-09-08T19:42:49.083Z,16.00
2018-09-08T19:45:17.894Z,15.90
2018-09-08T19:47:51.953Z,15.90
2018-09-08T19:50:20.853Z,15.90
2018-09-08T19:52:54.334Z,15.80
2018-09-08T19:55:22.752Z,15.80
2018-09-08T19:57:56.995Z,15.80
2018-09-08T20:00:25.316Z,15.80
2018-09-08T20:02:54.132Z,15.70
2018-09-08T20:05:23.325Z,15.70
2018-09-08T20:07:51.864Z,15.70
2018-09-08T20:10:20.714Z,15.70
2018-09-08T20:12:49.242Z,15.70
2018-09-08T20:15:17.892Z,15.70
2018-09-08T20:17:46.777Z,15.60
2018-09-08T20:20:15.779Z,15.60
2018-09-08T20:22:44.381Z,15.50
2018-09-08T20:25:12.831Z,15.50
2018-09-08T20:27:41.544Z,15.50
2018-09-08T20:30:10.500Z,15.50
2018-09-08T20:32:39.036Z,15.50
2018-09-08T20:35:07.827Z,15.40
2018-09-08T20:37:36.649Z,15.40
2018-09-08T20:40:05.914Z,15.40
2018-09-08T20:42:34.343Z,15.40
2018-09-08T20:45:03.540Z,15.40
2018-09-08T20:47:31.950Z,15.30
2018-09-08T20:50:00.776Z,15.30
2018-09-08T20:52:29.440Z,15.30
2018-09-08T20:54:58.261Z,15.20
2018-09-08T20:57:27.090Z,15.20
2018-09-08T20:59:56.175Z,15.20
2018-09-08T21:02:24.693Z,15.20
2018-09-08T21:04:54.410Z,15.10
2018-09-08T21:07:23.313Z,15.10
2018-09-08T21:09:52.221Z,15.10
2018-09-08T21:12:21.004Z,15.10
2018-09-08T21:14:50.861Z,15.10
2018-09-08T21:17:19.788Z,15.10
2018-09-08T21:19:48.740Z,15.10
2018-09-08T21:22:17.474Z,15.10
2018-09-08T21:24:46.312Z,15.00
2018-09-08T21:27:14.892Z,15.00
2018-09-08T21:29:44.001Z,15.00
2018-09-08T21:32:13.110Z,15.00
2018-09-08T21:34:43.040Z,15.00
2018-09-08T21:37:12.084Z,15.00
2018-09-08T21:39:40.735Z,14.90
2018-09-08T21:42:09.680Z,14.90
2018-09-08T21:44:38.488Z,14.90
2018-09-08T21:47:07.501Z,14.90
2018-09-08T21:49:36.474Z,14.90
2018-09-08T21:52:05.272Z,14.90
2018-09-08T21:54:34.320Z,14.90
2018-09-08T21:57:03.172Z,14.90
2018-09-08T21:59:32.325Z,14.90
2018-09-08T22:02:01.040Z,14.80
2018-09-08T22:04:29.884Z,14.90
2018-09-08T22:06:58.780Z,14.80
2018-09-08T22:09:27.587Z,14.80
2018-09-08T22:11:56.589Z,14.80
2018-09-08T22:14:25.832Z,14.80
2018-09-08T22:16:54.234Z,14.80
2018-09-08T22:19:23.050Z,14.70
2018-09-08T22:21:51.876Z,14.80
2018-09-08T22:24:20.760Z,14.80
2018-09-08T22:26:50.684Z,14.70
2018-09-08T22:29:19.206Z,14.80
2018-09-08T22:31:48.353Z,14.70
2018-09-08T22:34:17.414Z,14.70
2018-09-08T22:36:46.216Z,14.70
2018-09-08T22:39:15.229Z,14.70
2018-09-08T22:41:44.304Z,14.70
2018-09-08T22:44:12.920Z,14.70
2018-09-08T22:46:41.780Z,14.70
2018-09-08T22:49:11.630Z,14.70
2018-09-08T22:51:40.148Z,14.70
2018-09-08T22:54:08.866Z,14.70
2018-09-08T22:56:37.610Z,14.70
2018-09-08T22:59:06.501Z,14.70
2018-09-08T23:01:35.108Z,14.80
2018-09-08T23:04:03.937Z,14.70
2018-09-08T23:06:32.882Z,14.80
2018-09-08T23:09:01.790Z,14.70
2018-09-08T23:11:30.808Z,14.70
2018-09-08T23:13:59.716Z,14.80
2018-09-08T23:16:27.903Z,14.80
2018-09-08T23:18:56.937Z,14.80
2018-09-08T23:21:25.839Z,14.80
2018-09-08T23:23:54.801Z,14.80
2018-09-08T23:26:23.624Z,14.80
2018-09-08T23:28:52.617Z,14.80
2018-09-08T23:31:21.213Z,14.80
2018-09-08T23:33:50.269Z,14.80
2018-09-08T23:36:19.593Z,14.80
2018-09-08T23:38:48.616Z,14.80
2018-09-08T23:41:17.649Z,14.90
2018-09-08T23:43:47.521Z,14.80
2018-09-08T23:46:16.365Z,14.90
2018-09-08T23:48:45.211Z,14.90
2018-09-08T23:51:14.238Z,14.90
2018-09-08T23:53:43.154Z,14.90
